CheckWX is a tool to help pilots better visualize weather data.  It is not intended as a substitute for an official pre-flight weather briefing.

02:14:42 UTC

KGPM METAR
Grand Prairie Municipal Airport
Grand Prairie, Texas, USA
Current

20 mins ago

KGPM 190155Z AUTO 06006KT 10SM CLR 28/21 A2990 RMK AO2 T02780207
Observed
Sep-19 @ 01:55 UTC
Wind
  • 060° at 6 KTS
Visibility
10 SM
Flight Rules
VFR
Cloud Levels
  • Clear skies
Temperature
28°C / 82°F
Dewpoint
21°C / 70°F
Heat Index
30°C / 86°F
Humidity
66%
Altimeter
29.9" Hg
Pressure
1012.52 hPa
Previous

40 mins ago

KGPM 190135Z AUTO 06006KT 10SM CLR 28/21 A2989 RMK AO2 T02810205
Observed
Sep-19 @ 01:35 UTC
Wind
  • 060° at 6 KTS
Visibility
10 SM
Flight Rules
VFR
Cloud Levels
  • Clear skies
Temperature
28°C / 82°F
Dewpoint
21°C / 70°F
Heat Index
30°C / 86°F
Humidity
66%
Altimeter
29.89" Hg
Pressure
1012.22 hPa
Previous

60 mins ago

KGPM 190115Z AUTO 07010KT 10SM CLR 29/21 A2989 RMK AO2 T02850205
Observed
Sep-19 @ 01:15 UTC
Wind
  • 070° at 10 KTS
Visibility
10 SM
Flight Rules
VFR
Cloud Levels
  • Clear skies
Temperature
29°C / 84°F
Dewpoint
21°C / 70°F
Heat Index
31°C / 88°F
Humidity
62%
Altimeter
29.89" Hg
Pressure
1012.22 hPa